Time;durP1;ratioP1;P1;durP2;ratioP2;P2;SDS_P1;SDS_P2;PMS_P1;PMS_P2;Temp;Humidity;BMP_temperature;BMP_pressure;BME280_temperature;BME280_humidity;BME280_pressure;Samples;Min_cycle;Max_cycle;Signal;HPM_P1;HPM_P2
2023/07/06 00:01:01;;;;;;;5.80;3.90;;;12.70;99.90;;;;;;5079050;28;20036;-72
2023/07/06 00:03:27;;;;;;;7.97;4.47;;;12.60;99.90;;;;;;5088475;28;20040;-72
2023/07/06 00:05:54;;;;;;;5.45;3.83;;;12.60;99.90;;;;;;5082416;28;20036;-71
2023/07/06 00:08:20;;;;;;;5.60;3.80;;;12.50;99.90;;;;;;5073937;28;20048;-73
2023/07/06 00:10:49;;;;;;;7.05;4.20;;;12.50;99.90;;;;;;5094069;28;20040;-71
2023/07/06 00:13:16;;;;;;;6.30;3.72;;;12.50;99.90;;;;;;5092614;28;20126;-71
2023/07/06 00:15:42;;;;;;;7.80;4.38;;;12.50;99.90;;;;;;5087299;28;20054;-71
2023/07/06 00:18:09;;;;;;;5.75;4.00;;;12.50;99.90;;;;;;5086756;28;20044;-71
2023/07/06 00:20:37;;;;;;;6.53;4.40;;;12.40;99.90;;;;;;5094486;28;20110;-72
2023/07/06 00:23:04;;;;;;;6.90;4.07;;;12.30;99.90;;;;;;5089543;28;20036;-72
2023/07/06 00:25:30;;;;;;;7.85;4.28;;;12.30;99.90;;;;;;5085121;28;20044;-71
2023/07/06 00:27:58;;;;;;;7.78;4.43;;;12.30;99.90;;;;;;5073841;28;20051;-73
2023/07/06 00:31:20;;;;;;;6.85;4.13;;;12.30;99.90;;;;;;5087803;28;20119;-74
2023/07/06 00:33:17;;;;;;;6.18;4.25;;;12.30;99.90;;;;;;5065729;28;20044;-72
2023/07/06 00:35:44;;;;;;;6.28;3.90;;;12.30;99.90;;;;;;5093699;28;20044;-74
2023/07/06 00:38:14;;;;;;;8.73;4.55;;;12.30;99.90;;;;;;5074922;28;20536;-74
2023/07/06 00:40:45;;;;;;;5.63;4.07;;;12.30;99.90;;;;;;5073036;28;20512;-74
2023/07/06 00:43:15;;;;;;;6.80;4.28;;;12.30;99.90;;;;;;5078174;28;20044;-73
2023/07/06 00:45:44;;;;;;;7.10;4.15;;;12.30;99.90;;;;;;5079749;28;20489;-74
2023/07/06 00:48:33;;;;;;;7.60;4.85;;;12.30;99.90;;;;;;5092180;28;20043;-74
2023/07/06 00:51:07;;;;;;;6.55;4.22;;;12.30;99.90;;;;;;5093264;28;20137;-74
2023/07/06 00:53:37;;;;;;;8.85;4.28;;;12.30;99.90;;;;;;5084758;28;20047;-72
2023/07/06 00:56:10;;;;;;;8.57;4.50;;;12.30;99.90;;;;;;5078743;28;20036;-73
2023/07/06 00:58:45;;;;;;;6.90;4.38;;;12.30;99.90;;;;;;5075074;28;20043;-73
2023/07/06 01:01:13;;;;;;;8.00;4.60;;;12.20;99.90;;;;;;5088524;28;20528;-73
2023/07/06 01:03:48;;;;;;;8.18;4.40;;;12.20;99.90;;;;;;5093214;28;20043;-74
2023/07/06 01:06:19;;;;;;;6.40;4.70;;;12.20;99.90;;;;;;5093165;28;20048;-72
2023/07/06 01:08:48;;;;;;;5.88;4.85;;;12.20;99.90;;;;;;5084656;28;20125;-74
2023/07/06 01:11:14;;;;;;;7.57;4.40;;;12.10;99.90;;;;;;5072946;28;20040;-72
2023/07/06 01:13:47;;;;;;;6.00;4.15;;;12.10;99.90;;;;;;5072486;28;20028;-73
2023/07/06 01:16:34;;;;;;;5.63;4.15;;;12.00;99.90;;;;;;5083036;28;20083;-73
2023/07/06 01:19:25;;;;;;;6.20;4.32;;;12.00;99.90;;;;;;5083791;28;20048;-72
2023/07/06 01:22:04;;;;;;;7.05;4.60;;;12.00;99.90;;;;;;5093176;28;20032;-72
2023/07/06 01:24:40;;;;;;;6.15;4.10;;;11.90;99.90;;;;;;5093114;28;20032;-71
2023/07/06 01:27:25;;;;;;;8.05;4.28;;;11.90;99.90;;;;;;5085332;28;20055;-71
2023/07/06 01:30:03;;;;;;;6.82;4.43;;;11.80;99.90;;;;;;5072748;28;20048;-70
2023/07/06 01:32:35;;;;;;;6.28;3.92;;;11.70;99.90;;;;;;5088987;28;20119;-71
2023/07/06 01:35:10;;;;;;;5.63;4.15;;;11.70;99.90;;;;;;5092744;28;20040;-71
2023/07/06 01:37:41;;;;;;;6.22;3.97;;;11.70;99.90;;;;;;5077935;28;20051;-70
2023/07/06 01:40:09;;;;;;;6.35;4.38;;;11.60;99.90;;;;;;5071936;28;20045;-71
2023/07/06 01:42:37;;;;;;;7.00;4.43;;;11.60;99.90;;;;;;5088144;28;20051;-71
2023/07/06 01:45:20;;;;;;;6.18;4.18;;;11.60;99.90;;;;;;5092581;28;20044;-73
2023/07/06 01:47:51;;;;;;;6.80;4.00;;;11.60;99.90;;;;;;5092521;28;20036;-73
2023/07/06 01:50:20;;;;;;;6.57;3.58;;;11.50;99.90;;;;;;5085789;28;20044;-73
2023/07/06 01:53:01;;;;;;;7.05;4.18;;;11.50;99.90;;;;;;5072687;28;20043;-74
2023/07/06 01:55:57;;;;;;;5.80;4.30;;;11.50;99.90;;;;;;5085794;28;20035;-72
2023/07/06 01:58:26;;;;;;;6.72;4.80;;;11.50;99.90;;;;;;5071057;28;20083;-71
2023/07/06 02:01:01;;;;;;;5.95;4.18;;;11.50;99.90;;;;;;5082506;28;20070;-71
2023/07/06 02:03:28;;;;;;;7.93;4.78;;;11.50;99.90;;;;;;5084798;28;20477;-71
2023/07/06 02:05:54;;;;;;;7.82;4.65;;;11.60;99.90;;;;;;5071227;28;20176;-72
2023/07/06 02:08:20;;;;;;;6.57;4.45;;;11.60;99.90;;;;;;5072113;28;20051;-74
2023/07/06 02:10:47;;;;;;;8.07;4.78;;;11.60;99.90;;;;;;5072273;28;20392;-74
2023/07/06 02:13:12;;;;;;;7.05;4.15;;;11.50;99.90;;;;;;5076133;28;20546;-73
2023/07/06 02:15:40;;;;;;;5.85;3.70;;;11.50;99.90;;;;;;5075768;28;20040;-72
2023/07/06 02:18:06;;;;;;;6.63;4.20;;;11.50;99.90;;;;;;5076224;28;20090;-73
2023/07/06 02:20:31;;;;;;;5.45;4.10;;;11.40;99.90;;;;;;5075004;28;20075;-73
2023/07/06 02:22:57;;;;;;;6.75;3.92;;;11.50;99.90;;;;;;5071280;28;20067;-73
2023/07/06 02:25:23;;;;;;;6.72;4.05;;;11.40;99.90;;;;;;5084671;28;20551;-73
2023/07/06 02:27:49;;;;;;;6.93;4.50;;;11.50;99.90;;;;;;5077825;28;20048;-73
2023/07/06 02:30:15;;;;;;;7.80;4.40;;;11.50;99.90;;;;;;5073924;28;20044;-74
2023/07/06 02:32:40;;;;;;;6.80;4.78;;;11.50;99.90;;;;;;5094126;28;20040;-72
2023/07/06 02:35:09;;;;;;;7.15;4.57;;;11.50;99.90;;;;;;5085744;28;20051;-73
2023/07/06 02:37:38;;;;;;;6.70;4.78;;;11.60;99.90;;;;;;5081239;28;20060;-73
2023/07/06 02:40:07;;;;;;;7.28;4.40;;;11.60;99.90;;;;;;5074806;28;20044;-73
2023/07/06 02:42:34;;;;;;;5.47;4.18;;;11.60;99.90;;;;;;5091413;28;20067;-72
2023/07/06 02:45:00;;;;;;;7.75;4.28;;;11.70;99.90;;;;;;5080619;28;20052;-73
2023/07/06 02:47:26;;;;;;;6.25;4.10;;;11.70;99.90;;;;;;5074658;28;20449;-72
2023/07/06 02:49:52;;;;;;;7.53;4.38;;;11.70;99.90;;;;;;5075318;28;20040;-73
2023/07/06 02:52:17;;;;;;;7.05;4.32;;;11.70;99.90;;;;;;5094854;28;20068;-72
2023/07/06 02:54:44;;;;;;;6.38;4.63;;;11.70;99.90;;;;;;5095647;28;20042;-73
2023/07/06 02:57:09;;;;;;;8.45;4.55;;;11.70;99.90;;;;;;5095764;28;20043;-71
2023/07/06 02:59:35;;;;;;;6.53;4.70;;;11.70;99.90;;;;;;5085877;28;20059;-72
2023/07/06 03:02:00;;;;;;;7.25;4.70;;;11.70;99.90;;;;;;5075401;28;20373;-72
2023/07/06 03:04:27;;;;;;;8.02;4.70;;;11.70;99.90;;;;;;5074753;28;20384;-73
2023/07/06 03:06:55;;;;;;;8.48;4.82;;;11.80;99.90;;;;;;5075255;28;20055;-72
2023/07/06 03:09:21;;;;;;;7.30;4.80;;;11.80;99.90;;;;;;5074983;28;20453;-72
2023/07/06 03:11:47;;;;;;;5.75;4.25;;;11.80;99.90;;;;;;5073958;28;20036;-72
2023/07/06 03:14:13;;;;;;;7.70;4.90;;;11.80;99.90;;;;;;5094411;28;20530;-71
2023/07/06 03:16:39;;;;;;;6.30;4.45;;;11.80;99.90;;;;;;5094945;28;20172;-71
2023/07/06 03:19:10;;;;;;;6.85;4.90;;;11.70;99.90;;;;;;5095060;28;20112;-71
2023/07/06 03:21:39;;;;;;;7.65;4.40;;;11.60;99.90;;;;;;5095170;28;20118;-73
2023/07/06 03:24:09;;;;;;;6.32;4.50;;;11.60;99.90;;;;;;5093288;28;20530;-73
2023/07/06 03:26:36;;;;;;;9.13;4.70;;;11.60;99.90;;;;;;5083476;28;20078;-73
2023/07/06 03:29:06;;;;;;;7.65;4.93;;;11.70;99.90;;;;;;5082171;28;20101;-72
2023/07/06 03:31:32;;;;;;;8.32;4.82;;;11.70;99.90;;;;;;5078907;28;20059;-73
2023/07/06 03:34:04;;;;;;;8.63;5.00;;;11.70;99.90;;;;;;5075386;28;20524;-74
2023/07/06 03:36:33;;;;;;;8.40;5.15;;;11.70;99.90;;;;;;5085993;28;20477;-73
2023/07/06 03:38:59;;;;;;;8.18;5.10;;;11.80;99.90;;;;;;5075165;28;20048;-73
2023/07/06 03:41:25;;;;;;;7.13;4.57;;;11.80;99.90;;;;;;5073888;28;20040;-72
2023/07/06 03:43:56;;;;;;;8.40;4.55;;;11.70;99.90;;;;;;5094302;28;20044;-72
2023/07/06 03:46:26;;;;;;;8.93;5.78;;;11.70;99.90;;;;;;5094551;28;20136;-74
2023/07/06 03:48:51;;;;;;;7.32;5.05;;;11.70;99.90;;;;;;5094459;28;20048;-73
2023/07/06 03:51:17;;;;;;;8.85;4.95;;;11.80;99.90;;;;;;5093322;28;20532;-73
2023/07/06 03:53:46;;;;;;;6.93;5.38;;;11.80;99.90;;;;;;5090409;28;20055;-73
2023/07/06 03:56:13;;;;;;;8.73;5.43;;;11.80;99.90;;;;;;5076171;28;20033;-74
2023/07/06 03:58:39;;;;;;;10.25;5.20;;;11.80;99.90;;;;;;5074002;28;20384;-74
2023/07/06 04:01:05;;;;;;;9.77;5.00;;;11.80;99.90;;;;;;5087852;28;20118;-75
2023/07/06 04:03:32;;;;;;;10.10;4.93;;;11.80;99.90;;;;;;5076454;28;20048;-73
2023/07/06 04:06:03;;;;;;;7.97;5.28;;;11.80;99.90;;;;;;5093846;28;20160;-73
2023/07/06 04:08:35;;;;;;;8.68;5.70;;;11.80;99.90;;;;;;5077738;28;20048;-74
2023/07/06 04:11:00;;;;;;;8.70;5.20;;;11.90;99.90;;;;;;5072564;28;20053;-73
2023/07/06 04:13:27;;;;;;;8.77;5.47;;;11.90;99.90;;;;;;5081085;28;20046;-73
2023/07/06 04:15:53;;;;;;;7.47;5.50;;;12.00;99.90;;;;;;5094176;28;20043;-73
2023/07/06 04:18:18;;;;;;;9.00;5.78;;;12.10;99.90;;;;;;5075866;28;20037;-74
2023/07/06 04:20:44;;;;;;;9.73;5.70;;;12.10;99.90;;;;;;5072198;28;20071;-73
2023/07/06 04:23:10;;;;;;;9.93;6.47;;;12.10;99.90;;;;;;5079267;28;20353;-73
2023/07/06 04:25:37;;;;;;;8.55;5.68;;;12.20;99.90;;;;;;5093829;28;20051;-72
2023/07/06 04:28:10;;;;;;;9.43;6.38;;;12.20;99.90;;;;;;5093938;28;20040;-73
2023/07/06 04:30:37;;;;;;;10.75;6.53;;;12.30;99.90;;;;;;5093870;28;20039;-73
2023/07/06 04:33:04;;;;;;;11.52;6.32;;;12.30;99.90;;;;;;5093622;28;20044;-73
2023/07/06 04:35:31;;;;;;;10.30;6.18;;;12.40;99.90;;;;;;5077867;28;20414;-72
2023/07/06 04:38:01;;;;;;;10.02;5.80;;;12.40;99.90;;;;;;5075935;28;20480;-72
2023/07/06 04:40:27;;;;;;;9.55;5.82;;;12.50;99.90;;;;;;5077551;28;20040;-73
2023/07/06 04:42:54;;;;;;;9.75;6.18;;;12.50;99.90;;;;;;5089656;28;20046;-72
2023/07/06 04:45:22;;;;;;;10.20;6.80;;;12.50;99.90;;;;;;5093118;28;20055;-73
2023/07/06 04:47:49;;;;;;;10.90;6.90;;;12.60;99.90;;;;;;5092337;28;20028;-72
2023/07/06 04:50:17;;;;;;;15.40;7.30;;;12.60;99.90;;;;;;5081041;28;20469;-73
2023/07/06 04:52:45;;;;;;;10.70;6.45;;;12.60;99.90;;;;;;5072914;28;20138;-73
2023/07/06 04:55:11;;;;;;;11.23;6.90;;;12.70;99.90;;;;;;5084761;28;20036;-73
2023/07/06 04:57:37;;;;;;;11.43;6.90;;;12.70;99.90;;;;;;5092030;28;20036;-73
2023/07/06 05:00:13;;;;;;;11.98;8.98;;;12.80;99.90;;;;;;5091538;28;20075;-71
2023/07/06 05:02:38;;;;;;;11.70;7.38;;;12.80;99.90;;;;;;5076036;28;20111;-73
2023/07/06 05:05:05;;;;;;;10.18;6.57;;;12.80;99.90;;;;;;5083352;28;20078;-73
2023/07/06 05:07:32;;;;;;;12.05;7.38;;;12.80;99.90;;;;;;5073083;28;20040;-73
2023/07/06 05:09:58;;;;;;;11.88;6.63;;;12.80;99.90;;;;;;5073030;28;20507;-64
2023/07/06 05:12:24;;;;;;;9.35;7.20;;;12.70;99.90;;;;;;5087196;28;20036;-63
2023/07/06 05:14:52;;;;;;;10.50;7.10;;;12.70;99.90;;;;;;5092883;28;20048;-63
2023/07/06 05:17:17;;;;;;;10.57;7.18;;;12.60;99.90;;;;;;5092908;28;20511;-64
2023/07/06 05:19:43;;;;;;;12.05;7.55;;;12.60;99.90;;;;;;5093100;28;20036;-65
2023/07/06 05:22:09;;;;;;;12.50;7.05;;;12.70;99.90;;;;;;5093194;28;20047;-64
2023/07/06 05:24:34;;;;;;;12.45;7.55;;;12.80;99.90;;;;;;5092890;28;20044;-64
2023/07/06 05:27:00;;;;;;;10.38;7.10;;;12.90;99.90;;;;;;5092567;28;20043;-64
2023/07/06 05:29:26;;;;;;;13.20;7.60;;;13.00;99.90;;;;;;5085713;28;20052;-64
2023/07/06 05:31:51;;;;;;;13.13;7.90;;;13.10;99.90;;;;;;5075806;28;20123;-64
2023/07/06 05:34:17;;;;;;;11.75;7.30;;;13.30;99.90;;;;;;5092832;28;20055;-65
2023/07/06 05:36:43;;;;;;;11.63;6.72;;;13.50;99.90;;;;;;5086582;28;20090;-63
2023/07/06 05:39:08;;;;;;;11.18;7.55;;;13.50;99.90;;;;;;5083576;28;20170;-64
2023/07/06 05:41:34;;;;;;;10.27;6.68;;;13.70;99.90;;;;;;5072554;28;20055;-63
2023/07/06 05:43:59;;;;;;;10.60;7.25;;;13.80;99.90;;;;;;5073136;28;20277;-64
2023/07/06 05:46:25;;;;;;;13.68;6.88;;;13.90;99.90;;;;;;5093040;28;20043;-64
2023/07/06 05:48:53;;;;;;;10.35;6.80;;;14.00;99.90;;;;;;5073471;28;20040;-64
2023/07/06 05:51:19;;;;;;;12.20;7.78;;;14.10;99.90;;;;;;5072269;28;20059;-64
2023/07/06 05:53:45;;;;;;;10.95;6.57;;;14.30;99.90;;;;;;5067663;28;20052;-64
2023/07/06 05:56:13;;;;;;;13.35;7.15;;;14.40;99.90;;;;;;5080193;28;20065;-65
2023/07/06 05:58:40;;;;;;;10.75;6.15;;;14.50;99.90;;;;;;5066645;28;20385;-64
2023/07/06 06:01:05;;;;;;;8.93;6.25;;;14.50;99.90;;;;;;5070798;28;20045;-64
2023/07/06 06:03:31;;;;;;;9.70;6.78;;;14.70;99.90;;;;;;5076593;28;20591;-64
2023/07/06 06:05:58;;;;;;;8.13;6.45;;;14.80;99.90;;;;;;5084291;28;20082;-64
2023/07/06 06:08:25;;;;;;;10.38;6.57;;;14.90;99.90;;;;;;5083633;28;20059;-65
2023/07/06 06:10:50;;;;;;;10.57;6.82;;;15.00;99.90;;;;;;5075311;28;20037;-65
2023/07/06 06:13:16;;;;;;;11.43;5.80;;;15.10;99.90;;;;;;5075966;28;20044;-65
2023/07/06 06:15:42;;;;;;;10.73;6.45;;;15.10;99.90;;;;;;5075582;28;20037;-65
2023/07/06 06:18:09;;;;;;;10.18;6.07;;;15.20;99.90;;;;;;5075971;28;20067;-65
2023/07/06 06:20:37;;;;;;;11.02;5.60;;;15.20;99.90;;;;;;5080848;28;20041;-63
2023/07/06 06:23:03;;;;;;;12.07;6.20;;;15.30;99.90;;;;;;5081482;28;20053;-63
2023/07/06 06:25:29;;;;;;;9.57;6.03;;;15.30;99.90;;;;;;5087430;28;20048;-64
2023/07/06 06:27:55;;;;;;;8.27;5.70;;;15.40;99.90;;;;;;5073999;28;20044;-64
2023/07/06 06:30:20;;;;;;;10.40;6.40;;;15.50;99.90;;;;;;5087379;28;20105;-64
2023/07/06 06:32:46;;;;;;;10.57;6.43;;;15.60;99.90;;;;;;5076661;28;20067;-64
2023/07/06 06:35:28;;;;;;;10.50;5.70;;;15.80;99.90;;;;;;5075135;28;20040;-64
2023/07/06 06:37:54;;;;;;;10.95;5.65;;;15.80;99.90;;;;;;5075118;28;20040;-64
2023/07/06 06:40:21;;;;;;;9.77;5.65;;;15.70;99.90;;;;;;5080735;28;20089;-64
2023/07/06 06:42:48;;;;;;;8.77;5.95;;;15.70;99.90;;;;;;5095850;28;20089;-64
2023/07/06 06:45:15;;;;;;;10.85;6.38;;;15.70;99.90;;;;;;5091908;28;20089;-64
2023/07/06 06:47:41;;;;;;;9.70;5.78;;;15.80;99.90;;;;;;5075257;28;20041;-64
2023/07/06 06:50:13;;;;;;;10.68;6.55;;;15.70;99.90;;;;;;5080479;28;20055;-64
2023/07/06 06:52:40;;;;;;;9.02;6.07;;;15.60;99.90;;;;;;5095094;28;20075;-64
2023/07/06 06:55:06;;;;;;;11.00;6.95;;;15.70;99.90;;;;;;5095550;28;20048;-64
2023/07/06 06:57:32;;;;;;;10.25;6.55;;;15.70;99.90;;;;;;5094435;28;20036;-65
2023/07/06 06:59:59;;;;;;;11.80;7.00;;;15.90;99.90;;;;;;5093674;28;20516;-65
2023/07/06 07:02:25;;;;;;;15.50;7.18;;;16.10;99.90;;;;;;5095289;28;20043;-65
2023/07/06 07:04:52;;;;;;;9.25;5.80;;;16.20;99.90;;;;;;5086285;28;20040;-65
2023/07/06 07:07:17;;;;;;;9.05;6.35;;;16.20;99.90;;;;;;5084955;28;20039;-65
2023/07/06 07:09:45;;;;;;;10.48;7.18;;;16.10;99.90;;;;;;5095079;28;20092;-65
2023/07/06 07:12:11;;;;;;;10.30;7.55;;;16.20;99.90;;;;;;5082903;28;20040;-65
2023/07/06 07:14:38;;;;;;;12.18;8.48;;;16.30;99.90;;;;;;5090986;28;20036;-66
2023/07/06 07:17:10;;;;;;;11.35;7.38;;;16.50;99.90;;;;;;5083468;28;20040;-65
2023/07/06 07:19:36;;;;;;;14.18;8.25;;;16.50;99.90;;;;;;5094683;28;20055;-65
2023/07/06 07:22:02;;;;;;;11.32;8.27;;;16.60;99.90;;;;;;5093952;28;20128;-66
2023/07/06 07:24:32;;;;;;;10.13;8.02;;;16.60;99.90;;;;;;5075545;28;20028;-65
2023/07/06 07:27:01;;;;;;;10.70;7.90;;;16.70;99.90;;;;;;5090968;28;20040;-64
2023/07/06 07:29:26;;;;;;;11.63;7.55;;;16.90;99.90;;;;;;5086432;28;20055;-65
2023/07/06 07:31:53;;;;;;;13.77;8.60;;;17.00;99.90;;;;;;5072253;28;20044;-67
2023/07/06 07:34:19;;;;;;;9.77;7.57;;;16.90;99.90;;;;;;5073944;28;20051;-65
2023/07/06 07:36:45;;;;;;;9.05;7.57;;;17.10;99.90;;;;;;5070458;28;20041;-65
2023/07/06 07:39:11;;;;;;;11.45;7.70;;;17.10;99.90;;;;;;5074123;28;20040;-65
2023/07/06 07:41:37;;;;;;;10.27;7.97;;;17.10;99.90;;;;;;5074367;28;20071;-64
2023/07/06 07:44:04;;;;;;;10.65;8.10;;;17.10;99.90;;;;;;5073530;28;20516;-66
2023/07/06 07:46:30;;;;;;;11.50;8.85;;;17.10;99.90;;;;;;5072657;28;20063;-65
2023/07/06 07:48:56;;;;;;;12.40;8.27;;;17.10;99.90;;;;;;5071418;28;20040;-66
2023/07/06 07:51:25;;;;;;;11.05;7.95;;;17.00;99.90;;;;;;5073533;28;20094;-65
2023/07/06 07:53:52;;;;;;;12.90;8.57;;;17.10;99.90;;;;;;5074185;28;20158;-65
2023/07/06 07:56:19;;;;;;;9.25;7.70;;;17.20;99.90;;;;;;5072373;28;20097;-64
2023/07/06 07:58:47;;;;;;;10.63;7.65;;;17.30;99.90;;;;;;5073649;28;20040;-65
2023/07/06 08:01:18;;;;;;;9.38;7.40;;;17.40;99.90;;;;;;5072183;28;20041;-64
2023/07/06 08:03:44;;;;;;;11.35;7.68;;;17.30;99.90;;;;;;5072013;28;20048;-64
2023/07/06 08:06:14;;;;;;;11.45;7.60;;;17.20;99.90;;;;;;5072361;28;20044;-65
2023/07/06 08:08:41;;;;;;;9.70;7.18;;;17.30;99.90;;;;;;5074101;28;20036;-64
2023/07/06 08:11:22;;;;;;;11.80;7.63;;;17.50;99.90;;;;;;5073304;28;20051;-65
2023/07/06 08:13:53;;;;;;;11.20;7.00;;;17.80;99.90;;;;;;5072581;28;20070;-64
2023/07/06 08:16:20;;;;;;;10.27;7.05;;;18.00;99.90;;;;;;5073029;28;20063;-64
2023/07/06 08:18:46;;;;;;;9.55;7.47;;;18.30;99.90;;;;;;5073389;28;20036;-65
2023/07/06 08:21:13;;;;;;;10.63;6.68;;;18.40;99.90;;;;;;5073113;28;20074;-65
2023/07/06 08:23:45;;;;;;;8.98;6.40;;;18.50;99.90;;;;;;5073370;28;20075;-64
2023/07/06 08:26:10;;;;;;;12.00;7.20;;;18.60;99.90;;;;;;5073318;28;20161;-64
2023/07/06 08:28:36;;;;;;;11.45;6.45;;;18.80;99.90;;;;;;5072360;28;20484;-64
2023/07/06 08:31:03;;;;;;;9.25;7.07;;;18.60;99.90;;;;;;5066780;28;20430;-64
2023/07/06 08:33:35;;;;;;;9.13;6.07;;;18.50;99.90;;;;;;5066271;28;20146;-64
2023/07/06 08:36:04;;;;;;;6.68;5.40;;;18.50;99.90;;;;;;5069398;28;20040;-64
2023/07/06 08:38:33;;;;;;;11.93;5.93;;;18.60;99.90;;;;;;5067613;28;20123;-64
2023/07/06 08:41:03;;;;;;;7.60;5.88;;;18.70;99.90;;;;;;5070120;28;20369;-64
2023/07/06 08:43:34;;;;;;;8.65;5.80;;;18.90;99.90;;;;;;5070872;28;20074;-65
2023/07/06 08:46:03;;;;;;;8.70;4.93;;;18.80;99.90;;;;;;5070953;28;20125;-65
2023/07/06 08:48:32;;;;;;;10.65;6.32;;;18.80;99.90;;;;;;5065666;28;20044;-64
2023/07/06 08:51:12;;;;;;;7.15;5.30;;;18.90;99.90;;;;;;5070218;28;20040;-64
2023/07/06 08:53:42;;;;;;;5.72;4.88;;;18.90;99.90;;;;;;5073144;28;20086;-65
2023/07/06 08:56:14;;;;;;;7.40;5.15;;;19.00;99.90;;;;;;5072354;28;20079;-64
2023/07/06 08:58:42;;;;;;;6.53;4.80;;;19.10;99.90;;;;;;5072661;28;20040;-65
2023/07/06 09:01:12;;;;;;;6.35;4.75;;;19.30;99.90;;;;;;5070988;28;20051;-65
2023/07/06 09:04:06;;;;;;;5.57;4.40;;;19.40;99.90;;;;;;5072812;28;20102;-65
2023/07/06 09:06:37;;;;;;;7.47;4.72;;;19.40;99.90;;;;;;5061879;28;20494;-65
2023/07/06 09:09:03;;;;;;;6.65;4.90;;;19.50;99.90;;;;;;5072281;28;20127;-65
2023/07/06 09:11:31;;;;;;;6.68;4.90;;;19.40;99.90;;;;;;5071995;28;20047;-65
2023/07/06 09:13:59;;;;;;;6.43;5.07;;;19.50;99.90;;;;;;5071759;28;20349;-66
2023/07/06 09:16:26;;;;;;;5.80;3.95;;;19.60;99.90;;;;;;5072116;28;20040;-66
2023/07/06 09:18:53;;;;;;;4.93;4.22;;;19.60;99.90;;;;;;5072307;28;20037;-65
2023/07/06 09:21:26;;;;;;;5.05;3.63;;;19.50;99.90;;;;;;5071355;28;20539;-65
2023/07/06 09:23:56;;;;;;;5.32;3.60;;;19.60;99.90;;;;;;5072300;28;20051;-67
2023/07/06 09:26:34;;;;;;;5.03;3.53;;;19.80;99.90;;;;;;5071916;28;20123;-66
2023/07/06 09:29:15;;;;;;;5.03;3.50;;;19.90;99.90;;;;;;5072481;28;20105;-66
2023/07/06 09:31:43;;;;;;;5.63;3.65;;;19.80;99.90;;;;;;5061029;28;20053;-66
2023/07/06 09:34:21;;;;;;;4.30;2.83;;;19.60;99.90;;;;;;5067872;28;20064;-63
2023/07/06 09:36:47;;;;;;;5.35;3.03;;;19.70;99.90;;;;;;5064781;28;20076;-65
2023/07/06 09:39:14;;;;;;;3.95;2.50;;;19.60;99.90;;;;;;5059583;28;20043;-64
2023/07/06 09:41:44;;;;;;;3.45;2.40;;;19.50;99.90;;;;;;5076613;28;20044;-63
2023/07/06 09:44:15;;;;;;;4.55;2.70;;;19.30;99.90;;;;;;5069089;28;20041;-64
2023/07/06 09:46:43;;;;;;;5.10;2.97;;;19.30;99.90;;;;;;5075829;28;20393;-64
2023/07/06 09:49:19;;;;;;;3.58;2.78;;;19.50;99.90;;;;;;5076050;28;20045;-63
2023/07/06 09:51:55;;;;;;;5.80;3.08;;;19.70;99.90;;;;;;5076162;28;20040;-64
2023/07/06 09:54:31;;;;;;;4.53;2.80;;;19.80;99.90;;;;;;5070161;28;20048;-64
2023/07/06 09:56:57;;;;;;;3.55;2.30;;;20.00;99.90;;;;;;5075383;28;20369;-64
2023/07/06 09:59:23;;;;;;;4.82;2.67;;;20.10;99.90;;;;;;5076228;28;20036;-64
2023/07/06 10:02:13;;;;;;;6.32;3.10;;;20.10;99.90;;;;;;5073996;28;20127;-64
2023/07/06 10:04:45;;;;;;;4.55;2.80;;;20.20;99.90;;;;;;5074475;28;20040;-64
2023/07/06 10:07:40;;;;;;;3.67;2.55;;;20.20;99.90;;;;;;5075663;28;20047;-64
2023/07/06 10:10:16;;;;;;;3.92;2.75;;;20.10;99.90;;;;;;5064846;28;21098;-63
2023/07/06 10:13:06;;;;;;;3.55;2.28;;;20.00;99.90;;;;;;5075667;28;20115;-65
2023/07/06 10:15:46;;;;;;;4.53;2.40;;;19.90;99.90;;;;;;5074062;28;20476;-64
2023/07/06 10:18:27;;;;;;;3.50;2.58;;;19.80;99.90;;;;;;5075856;28;20072;-63
2023/07/06 10:20:54;;;;;;;4.10;2.85;;;20.00;99.90;;;;;;5072487;28;20032;-64
2023/07/06 10:23:32;;;;;;;4.38;2.70;;;20.20;99.90;;;;;;5075507;28;20044;-64
2023/07/06 10:26:18;;;;;;;6.00;2.70;;;20.60;99.90;;;;;;5075337;28;20107;-64
2023/07/06 10:28:56;;;;;;;3.80;2.80;;;20.60;99.90;;;;;;5075574;28;20090;-64
2023/07/06 10:31:29;;;;;;;3.85;2.55;;;20.60;99.90;;;;;;5075154;28;20075;-65
2023/07/06 10:34:07;;;;;;;4.43;2.25;;;20.50;99.90;;;;;;5057084;28;20041;-65
2023/07/06 10:36:35;;;;;;;4.03;2.22;;;20.20;99.90;;;;;;5072148;28;20440;-64
2023/07/06 10:39:13;;;;;;;4.15;2.40;;;19.90;99.90;;;;;;5071396;28;20044;-66
2023/07/06 10:41:49;;;;;;;3.80;2.50;;;19.60;99.90;;;;;;5063424;28;20044;-65
2023/07/06 10:44:46;;;;;;;3.70;2.20;;;19.50;99.90;;;;;;5075042;28;20370;-64
2023/07/06 10:47:34;;;;;;;3.58;2.28;;;19.50;99.90;;;;;;5060523;28;20045;-65
2023/07/06 10:50:31;;;;;;;4.47;2.88;;;19.60;99.90;;;;;;5067223;28;20048;-65
2023/07/06 10:52:59;;;;;;;4.78;2.55;;;19.50;99.90;;;;;;5075245;28;20438;-65
2023/07/06 10:55:30;;;;;;;3.55;1.85;;;19.70;99.90;;;;;;5074399;28;20481;-65
2023/07/06 10:58:25;;;;;;;2.88;1.60;;;20.00;99.90;;;;;;5073531;28;20047;-66
2023/07/06 11:00:52;;;;;;;3.45;1.50;;;20.20;99.90;;;;;;5072404;28;20044;-65
2023/07/06 11:03:23;;;;;;;4.82;1.90;;;20.40;99.90;;;;;;5074482;28;20040;-65
2023/07/06 11:06:06;;;;;;;3.78;2.17;;;20.80;99.90;;;;;;5074313;28;20068;-65
2023/07/06 11:09:05;;;;;;;3.55;1.70;;;21.20;99.90;;;;;;5071798;28;20101;-67
2023/07/06 11:11:43;;;;;;;3.85;1.60;;;21.30;99.90;;;;;;5072379;28;20047;-66
2023/07/06 11:14:33;;;;;;;3.78;1.40;;;21.10;99.90;;;;;;5071053;28;20032;-67
2023/07/06 11:17:13;;;;;;;2.70;1.73;;;20.80;99.90;;;;;;5062409;28;20064;-64
2023/07/06 11:19:44;;;;;;;4.07;1.90;;;20.60;99.90;;;;;;5072939;28;20052;-65
2023/07/06 11:22:17;;;;;;;4.15;2.40;;;20.60;99.90;;;;;;5074578;28;20047;-65
2023/07/06 11:24:50;;;;;;;3.28;1.80;;;21.00;99.90;;;;;;5074103;28;20068;-65
2023/07/06 11:27:47;;;;;;;3.88;1.50;;;21.30;99.90;;;;;;5070116;28;20168;-66
2023/07/06 11:30:17;;;;;;;3.10;1.50;;;21.50;99.90;;;;;;5060534;28;20048;-65
2023/07/06 11:33:10;;;;;;;2.90;1.05;;;21.70;99.90;;;;;;5062050;28;20036;-65
2023/07/06 11:35:59;;;;;;;2.30;1.00;;;21.90;99.90;;;;;;5066113;28;20051;-65
2023/07/06 11:39:05;;;;;;;3.10;1.10;;;21.80;99.90;;;;;;5064375;28;20627;-65
2023/07/06 11:41:53;;;;;;;2.42;1.38;;;21.60;99.90;;;;;;5071443;28;20028;-65
2023/07/06 11:44:35;;;;;;;2.75;1.10;;;21.90;99.90;;;;;;5073709;28;20053;-65
2023/07/06 11:47:17;;;;;;;1.58;0.90;;;22.20;99.90;;;;;;5072483;28;20044;-65
2023/07/06 11:49:45;;;;;;;2.53;1.25;;;22.10;99.90;;;;;;5073780;28;20040;-64
2023/07/06 11:52:15;;;;;;;2.15;0.98;;;22.10;99.90;;;;;;5061077;28;20033;-65
2023/07/06 11:54:51;;;;;;;3.08;1.40;;;22.40;99.90;;;;;;5073015;28;20090;-65
2023/07/06 11:57:28;;;;;;;3.72;1.38;;;22.50;99.90;;;;;;5072103;28;20501;-66
2023/07/06 12:03:08;;;;;;;1.88;0.90;;;22.70;99.90;;;;;;5058462;28;20041;-65
2023/07/06 12:05:41;;;;;;;1.80;0.95;;;22.40;99.90;;;;;;5067545;28;20062;-65
2023/07/06 12:08:16;;;;;;;2.33;0.95;;;22.30;99.90;;;;;;5071849;28;20045;-65
2023/07/06 12:10:51;;;;;;;2.88;1.02;;;22.40;99.90;;;;;;5059317;28;20051;-65
2023/07/06 12:13:22;;;;;;;;;;;22.30;99.90;;;;;;5072840;28;20032;-65
2023/07/06 12:15:49;;;;;;;2.75;1.42;;;22.10;99.90;;;;;;5072885;28;20289;-65
2023/07/06 12:18:15;;;;;;;3.28;1.20;;;22.30;99.90;;;;;;5072352;28;20032;-65
2023/07/06 12:20:42;;;;;;;2.22;0.98;;;22.60;99.90;;;;;;5072141;28;20048;-65
2023/07/06 12:23:14;;;;;;;2.45;1.15;;;22.80;99.90;;;;;;5073200;28;20099;-66
2023/07/06 12:25:41;;;;;;;3.22;1.40;;;23.10;99.90;;;;;;5067731;28;20057;-65
2023/07/06 12:28:11;;;;;;;2.22;1.20;;;23.10;99.90;;;;;;5055198;28;20039;-65
2023/07/06 12:30:39;;;;;;;3.70;1.60;;;22.70;99.90;;;;;;5072054;28;20610;-65
2023/07/06 12:33:08;;;;;;;5.50;2.67;;;22.30;99.90;;;;;;5068686;28;20049;-65
2023/07/06 12:35:35;;;;;;;4.70;2.42;;;22.30;99.90;;;;;;5071356;28;20036;-65
2023/07/06 12:38:09;;;;;;;3.30;1.65;;;22.50;99.90;;;;;;5068169;28;20362;-66
2023/07/06 12:40:35;;;;;;;3.22;1.60;;;22.60;99.90;;;;;;5064588;28;20041;-66
2023/07/06 12:43:03;;;;;;;4.40;1.83;;;22.20;99.90;;;;;;5072835;28;20037;-65
2023/07/06 12:45:30;;;;;;;3.58;1.58;;;21.70;99.90;;;;;;5071831;28;20056;-65
2023/07/06 12:47:59;;;;;;;3.17;1.55;;;21.40;99.90;;;;;;5071534;28;20158;-65
2023/07/06 12:50:39;;;;;;;2.33;1.20;;;21.10;99.90;;;;;;5066371;28;20096;-65
2023/07/06 12:53:14;;;;;;;1.85;1.05;;;20.90;99.90;;;;;;5073176;28;20334;-65
2023/07/06 12:55:41;;;;;;;2.40;1.10;;;20.80;99.90;;;;;;5072079;28;20461;-64
2023/07/06 12:58:26;;;;;;;2.45;1.23;;;21.00;99.90;;;;;;5057492;28;20037;-65
2023/07/06 13:00:52;;;;;;;2.60;1.25;;;21.40;99.90;;;;;;5058542;28;20123;-65
2023/07/06 13:03:17;;;;;;;2.40;1.40;;;21.80;99.90;;;;;;5072234;28;20111;-65
2023/07/06 13:05:55;;;;;;;3.20;1.40;;;22.10;99.90;;;;;;5071840;28;20064;-64